Terminal Aerodrome Forecast
Issued by NWS Jackson, KY

Home | Current Version | Previous Version | Text Only | Print | Product List | Glossary On
Versions: 1 2 3 4 5 6 7 8 9 10 11 12 13 14
630
FTUS43 KJKL 020055 AAA
TAFLOZ
TAF AMD
KLOZ 020055Z 0201/0224 VRB06KT P6SM VCSH BKN050 OVC100
     FM020300 VRB06KT P6SM FEW050 SCT100
     FM021400 05004KT P6SM BKN100=

USA.gov is the U.S. government's official web portal to all federal, state and local government web resources and services.